Have a Safe July 4th! 

Flight Track Log - Related Links

Times and Time Zones

All times are in EDT time to prevent confusion due to time zone crossing. See the N269C flight status page for this flight to view local times or setup timezone preferences in your user account.

Time Position Orientation Groundspeed Altitude Reporting Facility
EDT Latitude Longitude Course Direction KTS MPH feet Rate Location/Type
Fri 04:42:51 PM 43.5711 -116.3494 260° West 132 152 5,800  Level Salt Lake Center
Fri 04:43:53 PM 43.5669 -116.4050 264° West 149 171 6,300 581 Climbing Salt Lake Center
Fri 04:44:55 PM 43.5594 -116.4628 260° West 153 176 7,000 726 Climbing Salt Lake Center
Fri 04:45:57 PM 43.5519 -116.5247 261° West 148 170 7,800 780 Climbing Salt Lake Center
Fri 04:46:00 PM 43.5241 -116.5318 259° West  Level FlightAware Approximate
Fri 04:46:58 PM 43.5456 -116.5789 261° West 150 173 8,600  Level Salt Lake Center
Fri 04:47:00 PM 43.5167 -116.5943 270° West  Level FlightAware Approximate
Fri 04:48:00 PM 43.5392 -116.6300 260° West 144 166 9,500  Level Salt Lake Center
Fri 04:49:02 PM 43.5317 -116.6872 260° West 135 155 10,500 823 Climbing Salt Lake Center
Fri 04:50:04 PM 43.5258 -116.7375 261° West 138 159 11,200 774 Climbing Salt Lake Center
Fri 04:51:06 PM 43.5178 -116.8017 260° West 154 177 12,100 774 Climbing Salt Lake Center
Fri 04:52:08 PM 43.5122 -116.8561 262° West 150 173 12,800 732 Climbing Salt Lake Center
Fri 04:53:09 PM 43.5044 -116.9222 261° West 155 178 13,600 829 Climbing Salt Lake Center
Fri 04:54:11 PM 43.4967 -116.9758 259° West 151 174 14,500 871 Climbing Salt Lake Center
Fri 04:55:13 PM 43.4894 -117.0389 261° West 150 173 15,400 774 Climbing Salt Lake Center
Fri 04:56:15 PM 43.4828 -117.0903 260° West 146 168 16,100 726 Climbing Salt Lake Center
Fri 04:57:17 PM 43.4764 -117.1450 261° West 148 170 16,900 726 Climbing Salt Lake Center
Fri 04:58:19 PM 43.4686 -117.2111 261° West 156 180 17,600 387 Climbing Salt Lake Center
Fri 04:59:21 PM 43.4611 -117.2714 260° West 168 193 17,700 146 Climbing Salt Lake Center
Fri 05:00:22 PM 43.4522 -117.3508 261° West 186 214 17,900 146 Climbing Salt Lake Center
Fri 05:01:24 PM 43.4433 -117.4208 260° West 192 221 18,000 48 Climbing Salt Lake Center
Fri 05:02:26 PM 43.4331 -117.5042 260° West 197 227 18,000  Level Salt Lake Center
Fri 05:03:28 PM 43.4233 -117.5753 259° West 197 227 18,000  Level Salt Lake Center
Fri 05:04:30 PM 43.4128 -117.6561 260° West 195 224 18,000  Level Salt Lake Center
Fri 05:05:32 PM 43.4036 -117.7250 260° West 193 222 18,000  Level Salt Lake Center
Fri 05:06:33 PM 43.3947 -117.7942 260° West 191 220 18,000  Level Salt Lake Center
Fri 05:07:35 PM 43.3839 -117.8761 260° West 194 223 18,000  Level Salt Lake Center
Fri 05:08:37 PM 43.3744 -117.9461 260° West 195 224 18,000  Level Salt Lake Center
Fri 05:09:39 PM 43.3653 -118.0297 261° West 198 228 18,000  Level Salt Lake Center
Fri 05:10:41 PM 43.3544 -118.0983 258° West 195 224 18,000  Level Salt Lake Center
Fri 05:11:43 PM 43.3431 -118.1789 259° West 189 217 18,000  Level Salt Lake Center
Fri 05:12:44 PM 43.3350 -118.2500 261° West 195 224 18,000  Level Salt Lake Center
Fri 05:13:46 PM 43.3253 -118.3292 260° West 193 222 18,000  Level Salt Lake Center
Fri 05:14:48 PM 43.3153 -118.4003 259° West 191 220 18,000  Level Salt Lake Center
Fri 05:15:50 PM 43.3058 -118.4722 260° West 191 220 18,000  Level Salt Lake Center
Fri 05:16:52 PM 43.2956 -118.5436 259° West 191 220 18,000  Level Salt Lake Center
Fri 05:17:54 PM 43.2858 -118.6172 260° West 194 223 18,000  Level Salt Lake Center
Fri 05:18:55 PM 43.2750 -118.6883 258° West 193 222 18,000  Level Salt Lake Center
Fri 05:19:57 PM 43.2656 -118.7608 260° West 193 222 18,000  Level Salt Lake Center
Fri 05:20:59 PM 43.2536 -118.8450 259° West 190 219 18,000  Level Salt Lake Center
Fri 05:22:15 PM 43.2394 -118.9408 259° West 194 223 18,000  Level Seattle Center
Fri 05:23:17 PM 43.2297 -119.0100 259° West 194 223 18,000  Level Seattle Center
Fri 05:24:18 PM 43.2203 -119.0817 260° West 197 227 18,000  Level Seattle Center
Fri 05:25:19 PM 43.2083 -119.1611 258° West 193 222 18,000  Level Seattle Center
Fri 05:26:09 PM 43.2017 -119.2097 259° West 193 222 18,000  Level Salt Lake Center
Fri 05:27:11 PM 43.1881 -119.2961 258° West 193 222 18,000  Level Salt Lake Center
Fri 05:28:13 PM 43.1769 -119.3689 258° West 195 224 18,000  Level Salt Lake Center
Fri 05:29:15 PM 43.1675 -119.4408 260° West 193 222 18,000  Level Salt Lake Center
Fri 05:30:17 PM 43.1575 -119.5122 259° West 192 221 18,000  Level Salt Lake Center
Fri 05:31:19 PM 43.1467 -119.5847 258° West 192 221 18,000  Level Salt Lake Center
Fri 05:32:21 PM 43.1361 -119.6544 258° West 190 219 18,000  Level Salt Lake Center
Fri 05:33:23 PM 43.1250 -119.7250 258° West 190 219 18,000  Level Salt Lake Center
Fri 05:34:25 PM 43.1133 -119.8128 260° West 193 222 18,000  Level Salt Lake Center
Fri 05:35:27 PM 43.1017 -119.8808 257° West 188 216 18,000  Level Salt Lake Center
Fri 05:36:29 PM 43.0925 -119.9517 260° West 188 216 18,000  Level Salt Lake Center
Fri 05:37:35 PM 43.0808 -120.0169 256° West 184 212 18,000  Level Seattle Center
Fri 05:38:36 PM 43.0683 -120.1008 258° West 187 215 18,000  Level Seattle Center
Fri 05:39:37 PM 43.0581 -120.1719 259° West 189 217 18,000  Level Seattle Center
Fri 05:40:38 PM 43.0472 -120.2417 258° West 190 219 18,000  Level Seattle Center
Fri 05:41:39 PM 43.0356 -120.3125 257° West 190 219 18,000  Level Seattle Center
Fri 05:42:41 PM 43.0239 -120.3822 257° West 192 221 18,000  Level Seattle Center
Fri 05:43:42 PM 43.0131 -120.4531 258° West 192 221 18,000  Level Seattle Center
Fri 05:44:43 PM 43.0022 -120.5208 258° West 190 219 18,000  Level Seattle Center
Fri 05:45:44 PM 42.9917 -120.5914 258° West 189 217 18,000  Level Seattle Center
Fri 05:46:45 PM 42.9811 -120.6619 258° West 190 219 18,000  Level Seattle Center
Fri 05:47:46 PM 42.9675 -120.7467 258° West 190 219 18,000  Level Seattle Center
Fri 05:48:48 PM 42.9553 -120.8214 257° West 192 221 18,000  Level Seattle Center
Fri 05:49:49 PM 42.9436 -120.8939 258° West 194 223 18,000 49 Level Seattle Center
Fri 05:50:50 PM 42.9325 -120.9636 258° West 190 219 18,100  Climbing Seattle Center
Fri 05:51:51 PM 42.9239 -121.0317 260° West 186 214 18,000 -49 Descending Seattle Center
Fri 05:52:52 PM 42.9128 -121.1014 258° West 186 214 18,000  Level Seattle Center
Fri 05:53:53 PM 42.8967 -121.1775 254° West 202 232 18,000  Level Seattle Center
Fri 05:54:55 PM 42.8864 -121.2475 259° West 196 226 18,000  Level Seattle Center
Fri 05:55:56 PM 42.8775 -121.3211 261° West 195 224 18,000  Level Seattle Center
Fri 05:56:57 PM 42.8778 -121.3914 270° West 191 220 18,000  Level Seattle Center
Fri 05:57:58 PM 42.8789 -121.4614 271° West 185 213 18,000 -98 Level Seattle Center
Fri 05:58:59 PM 42.8750 -121.5422 266° West 193 222 17,800 -197 Descending Seattle Center
Fri 06:00:00 PM 42.8736 -121.6214 269° West 202 232 17,600 -344 Descending Seattle Center
Fri 06:01:01 PM 42.8758 -121.7161 272° West 208 239 17,100 -488 Descending Seattle Center
Fri 06:02:03 PM 42.8769 -121.8014 271° West 218 251 16,600 -439 Descending Seattle Center
Fri 06:03:04 PM 42.8811 -121.8828 274° West 217 250 16,200 -443 Descending Seattle Center
Fri 06:04:05 PM 42.8858 -121.9639 275° West 215 247 15,700 -443 Descending Seattle Center
Fri 06:05:06 PM 42.8864 -122.0433 271° West 212 244 15,300 -246 Descending Seattle Center
Fri 06:06:07 PM 42.8831 -122.1222 267° West 209 241 15,200 -344 Descending Seattle Center
Fri 06:07:08 PM 42.9386 -122.1414 346° North 228 262 14,600 -492 Descending Seattle Center
Fri 06:08:09 PM 42.9594 -122.0956 58° Northeast 241 277 14,200 -443 Descending Seattle Center
Fri 06:09:10 PM 42.9092 -122.0967 181° South 221 254 13,700 -393 Descending Seattle Center
Fri 06:10:11 PM 42.9492 -122.0806 16° North 214 246 13,400 -98 Descending Seattle Center
Fri 06:11:13 PM 42.9550 -122.1475 277° West 197 227 13,500  Climbing Seattle Center
Fri 06:12:14 PM 42.9331 -122.2142 246° West 195 224 13,400  Descending Seattle Center
Fri 06:13:15 PM 42.9014 -122.2892 240° Southwest 191 220 13,500 -98 Climbing Seattle Center
Fri 06:14:16 PM 42.8781 -122.3586 245° Southwest 201 231 13,200 -393 Descending Seattle Center
Fri 06:15:17 PM 42.8611 -122.4344 253° West 211 243 12,700 -443 Descending Seattle Center
Fri 06:16:18 PM 42.8403 -122.5078 249° West 210 242 12,300 -344 Descending Seattle Center
Fri 06:17:19 PM 42.8194 -122.5811 249° West 209 241 12,000 -443 Descending Seattle Center
Fri 06:18:20 PM 42.7969 -122.6544 247° West 211 243 11,400 -541 Descending Seattle Center
Fri 06:19:21 PM 42.7717 -122.7281 245° Southwest 212 244 10,900 -537 Descending Seattle Center
Fri 06:20:23 PM 42.7569 -122.8036 255° West 206 237 10,300 -488 Descending Seattle Center
Fri 06:21:24 PM 42.7417 -122.8781 254° West 208 239 9,900 -492 Descending Seattle Center
Fri 06:22:25 PM 42.7175 -122.9617 249° West 208 239 9,300 -639 Descending Seattle Center
Fri 06:23:26 PM 42.7028 -123.0364 255° West 206 237 8,600 -295 Descending Seattle Center
Fri 06:24:27 PM 42.6853 -123.1011 250° West 184 212 8,700 -49 Climbing Seattle Center
Fri 06:25:28 PM 42.6628 -123.1603 243° Southwest 179 206 8,500 -393 Descending Seattle Center
Fri 06:26:29 PM 42.6389 -123.2161 240° Southwest 172 198 7,900 -590 Descending Seattle Center

Login

Don't have an account? Register now (free) for customized features, flight alerts, and more!